Granby, MA

10:07 AM EDT on July 07, 2015 (GMT -0400)
South Hadley & surrounded by trees | | Change Station
CLOSE
Current Station
Personal Weather Station
Location: South Hadley, MA
Elevation: 265 ft
Nearby Weather Stations

Elev 265 ft 42.27 °N, 72.52 °W | Updated 13 seconds ago

Overcast
Overcast
73.6 °F
Feels Like 73 °F
N
0.0
Wind Variable Wind from SW
Gusts 0.0 mph

Today
High -- | Low -- °F
--% Chance of Precip.
Yesterday
High -- | Low -- °F
Precip. -- in
5:20 AM 8:28 PM
Waning Gibbous, 64% visible
Pressure 30.09 in
Visibility 10.0 miles
Clouds Mostly Cloudy 1000 ft
Overcast 3500 ft
Heat Index 73 °F
Dew Point 68 °F
Humidity 83%
Rainfall 0.00 in
Snow Depth Not available.
UV 2 out of 12
Pollen 3.00 out of 12
Air Quality Not available.
Flu Activity Not available.
METAR KCEF 071358Z 15002KT 10SM BKN010 OVC035 23/21 A3007 RMK AO2A SLP187 T02320205 $

More Conditions Fewer Conditions

Pressure 30.09 in
Visibility 10.0 miles
Clouds Mostly Cloudy 1000 ft
Overcast 3500 ft
Heat Index 73 °F
Dew Point 68 °F
Humidity 83%
Rainfall 0.00 in
Snow Depth Not available.
UV 2 out of 12
Pollen 3.00 out of 12
Air Quality Not available.
Flu Activity Not available.
METAR KCEF 071358Z 15002KT 10SM BKN010 OVC035 23/21 A3007 RMK AO2A SLP187 T02320205 $

More Conditions Fewer Conditions

10-Day Weather Forecast

×

Almanac

Astronomy

Jul. 07, 2015 Rise Set
Actual Time
Civil Twilight
Nautical Twilight
Astronomical Twilight
Moon
Length of Visible Light
Length of Day
Tomorrow will be .
, % of the Moon is Illuminated

Today's Extremes

State Highs State Lows

Community

WunderPhotos

Upload Photos

1,835,802 photos uploaded!

WunderBlogs® & News

Nearby

Air Quality

  Air Quality AQ Index Pollutant
Not available.

Snow Depth

Station Depth Elevation

Earthquake Activity

City Distance Mag. Time & Date
Minimum magnitude displayed is 2.5.

Coastal Water Temperatures

Place Temperature

Stations

Nearby Weather Stations

Station Location Temp. Windchill Dew Point Humidity Wind Precip. Elev Updated Type